sensor_id;sensor_type;location;lat;lon;timestamp;temperature;humidity
13742;DHT22;8461;52.356;10.704;2022-07-29T00:01:21;15.30;99.90
13742;DHT22;8461;52.356;10.704;2022-07-29T00:03:47;15.30;99.90
13742;DHT22;8461;52.356;10.704;2022-07-29T00:06:13;15.30;99.90
13742;DHT22;8461;52.356;10.704;2022-07-29T00:08:39;15.30;99.90
13742;DHT22;8461;52.356;10.704;2022-07-29T00:11:04;15.20;99.90
13742;DHT22;8461;52.356;10.704;2022-07-29T00:13:30;15.10;99.90
13742;DHT22;8461;52.356;10.704;2022-07-29T00:15:56;15.10;99.90
13742;DHT22;8461;52.356;10.704;2022-07-29T00:18:21;15.10;99.90
13742;DHT22;8461;52.356;10.704;2022-07-29T00:20:47;15.10;99.90
13742;DHT22;8461;52.356;10.704;2022-07-29T00:23:12;15.10;99.90
13742;DHT22;8461;52.356;10.704;2022-07-29T00:25:38;15.10;99.90
13742;DHT22;8461;52.356;10.704;2022-07-29T00:28:03;15.00;99.90
13742;DHT22;8461;52.356;10.704;2022-07-29T00:30:29;15.10;99.90
13742;DHT22;8461;52.356;10.704;2022-07-29T00:32:55;15.10;99.90
13742;DHT22;8461;52.356;10.704;2022-07-29T00:35:20;15.10;99.90
13742;DHT22;8461;52.356;10.704;2022-07-29T00:38:04;15.10;99.90
13742;DHT22;8461;52.356;10.704;2022-07-29T00:40:30;15.10;99.90
13742;DHT22;8461;52.356;10.704;2022-07-29T00:42:55;15.10;99.90
13742;DHT22;8461;52.356;10.704;2022-07-29T00:45:21;15.00;99.90
13742;DHT22;8461;52.356;10.704;2022-07-29T00:47:47;15.00;99.90
13742;DHT22;8461;52.356;10.704;2022-07-29T00:50:13;14.90;99.90
13742;DHT22;8461;52.356;10.704;2022-07-29T00:52:40;14.90;99.90
13742;DHT22;8461;52.356;10.704;2022-07-29T00:55:08;15.00;99.90
13742;DHT22;8461;52.356;10.704;2022-07-29T00:57:35;15.00;99.90
13742;DHT22;8461;52.356;10.704;2022-07-29T01:00:02;15.00;99.90
13742;DHT22;8461;52.356;10.704;2022-07-29T01:02:28;15.00;99.90
13742;DHT22;8461;52.356;10.704;2022-07-29T01:04:53;15.00;99.90
13742;DHT22;8461;52.356;10.704;2022-07-29T01:07:20;15.00;99.90
13742;DHT22;8461;52.356;10.704;2022-07-29T01:09:46;15.00;99.90
13742;DHT22;8461;52.356;10.704;2022-07-29T01:12:21;15.00;99.90
13742;DHT22;8461;52.356;10.704;2022-07-29T01:14:49;15.00;99.90
13742;DHT22;8461;52.356;10.704;2022-07-29T01:19:56;15.00;99.90
13742;DHT22;8461;52.356;10.704;2022-07-29T01:25:46;15.00;99.90
13742;DHT22;8461;52.356;10.704;2022-07-29T01:28:38;15.00;99.90
13742;DHT22;8461;52.356;10.704;2022-07-29T01:31:06;15.00;99.90
13742;DHT22;8461;52.356;10.704;2022-07-29T01:33:41;15.00;99.90
13742;DHT22;8461;52.356;10.704;2022-07-29T01:36:35;15.00;99.90
13742;DHT22;8461;52.356;10.704;2022-07-29T01:39:19;15.00;99.90
13742;DHT22;8461;52.356;10.704;2022-07-29T01:45:15;15.10;99.90
13742;DHT22;8461;52.356;10.704;2022-07-29T01:47:47;15.10;99.90
13742;DHT22;8461;52.356;10.704;2022-07-29T01:50:16;15.10;99.90
13742;DHT22;8461;52.356;10.704;2022-07-29T01:53:29;15.10;99.90
13742;DHT22;8461;52.356;10.704;2022-07-29T01:55:44;15.10;99.90
13742;DHT22;8461;52.356;10.704;2022-07-29T01:58:11;15.00;99.90
13742;DHT22;8461;52.356;10.704;2022-07-29T02:00:38;15.00;99.90
13742;DHT22;8461;52.356;10.704;2022-07-29T02:03:08;15.00;99.90
13742;DHT22;8461;52.356;10.704;2022-07-29T02:05:35;15.00;99.90
13742;DHT22;8461;52.356;10.704;2022-07-29T02:08:04;15.00;99.90
13742;DHT22;8461;52.356;10.704;2022-07-29T02:10:33;15.00;99.90
13742;DHT22;8461;52.356;10.704;2022-07-29T02:13:02;14.90;99.90
13742;DHT22;8461;52.356;10.704;2022-07-29T02:15:30;15.00;99.90
13742;DHT22;8461;52.356;10.704;2022-07-29T02:18:15;14.90;99.90
13742;DHT22;8461;52.356;10.704;2022-07-29T02:20:45;14.90;99.90
13742;DHT22;8461;52.356;10.704;2022-07-29T02:23:12;14.90;99.90
13742;DHT22;8461;52.356;10.704;2022-07-29T02:25:41;14.90;99.90
13742;DHT22;8461;52.356;10.704;2022-07-29T02:28:08;14.80;99.90
13742;DHT22;8461;52.356;10.704;2022-07-29T02:30:36;14.90;99.90
13742;DHT22;8461;52.356;10.704;2022-07-29T02:33:05;14.90;99.90
13742;DHT22;8461;52.356;10.704;2022-07-29T02:35:31;14.90;99.90
13742;DHT22;8461;52.356;10.704;2022-07-29T02:37:57;14.90;99.90
13742;DHT22;8461;52.356;10.704;2022-07-29T02:40:42;14.90;99.90
13742;DHT22;8461;52.356;10.704;2022-07-29T02:43:09;14.80;99.90
13742;DHT22;8461;52.356;10.704;2022-07-29T02:45:36;14.80;99.90
13742;DHT22;8461;52.356;10.704;2022-07-29T02:48:06;14.80;99.90
13742;DHT22;8461;52.356;10.704;2022-07-29T02:50:38;14.80;99.90
13742;DHT22;8461;52.356;10.704;2022-07-29T02:53:12;14.80;99.90
13742;DHT22;8461;52.356;10.704;2022-07-29T02:55:44;14.80;99.90
13742;DHT22;8461;52.356;10.704;2022-07-29T02:58:19;14.90;99.90
13742;DHT22;8461;52.356;10.704;2022-07-29T03:00:49;14.90;99.90
13742;DHT22;8461;52.356;10.704;2022-07-29T03:03:18;14.80;99.90
13742;DHT22;8461;52.356;10.704;2022-07-29T03:05:44;14.80;99.90
13742;DHT22;8461;52.356;10.704;2022-07-29T03:08:11;14.80;99.90
13742;DHT22;8461;52.356;10.704;2022-07-29T03:10:42;14.80;99.90
13742;DHT22;8461;52.356;10.704;2022-07-29T03:13:09;14.80;99.90
13742;DHT22;8461;52.356;10.704;2022-07-29T03:15:35;14.80;99.90
13742;DHT22;8461;52.356;10.704;2022-07-29T03:18:02;14.80;99.90
13742;DHT22;8461;52.356;10.704;2022-07-29T03:20:28;14.80;99.90
13742;DHT22;8461;52.356;10.704;2022-07-29T03:22:54;14.80;99.90
13742;DHT22;8461;52.356;10.704;2022-07-29T03:25:20;14.80;99.90
13742;DHT22;8461;52.356;10.704;2022-07-29T03:27:46;14.80;99.90
13742;DHT22;8461;52.356;10.704;2022-07-29T03:30:13;14.90;99.90
13742;DHT22;8461;52.356;10.704;2022-07-29T03:32:39;14.80;99.90
13742;DHT22;8461;52.356;10.704;2022-07-29T03:35:05;14.80;99.90
13742;DHT22;8461;52.356;10.704;2022-07-29T03:37:31;14.80;99.90
13742;DHT22;8461;52.356;10.704;2022-07-29T03:39:59;14.70;99.90
13742;DHT22;8461;52.356;10.704;2022-07-29T03:42:28;14.70;99.90
13742;DHT22;8461;52.356;10.704;2022-07-29T03:44:57;14.70;99.90
13742;DHT22;8461;52.356;10.704;2022-07-29T03:47:26;14.70;99.90
13742;DHT22;8461;52.356;10.704;2022-07-29T03:49:56;14.70;99.90
13742;DHT22;8461;52.356;10.704;2022-07-29T03:52:25;14.70;99.90
13742;DHT22;8461;52.356;10.704;2022-07-29T03:54:50;14.70;99.90
13742;DHT22;8461;52.356;10.704;2022-07-29T03:57:16;14.70;99.90
13742;DHT22;8461;52.356;10.704;2022-07-29T03:59:44;14.70;99.90
13742;DHT22;8461;52.356;10.704;2022-07-29T04:02:11;14.70;99.90
13742;DHT22;8461;52.356;10.704;2022-07-29T04:04:38;14.70;99.90
13742;DHT22;8461;52.356;10.704;2022-07-29T04:07:04;14.70;99.90
13742;DHT22;8461;52.356;10.704;2022-07-29T04:09:30;14.70;99.90
13742;DHT22;8461;52.356;10.704;2022-07-29T04:11:56;14.70;99.90
13742;DHT22;8461;52.356;10.704;2022-07-29T04:14:21;14.80;99.90
13742;DHT22;8461;52.356;10.704;2022-07-29T04:16:47;14.80;99.90
13742;DHT22;8461;52.356;10.704;2022-07-29T04:19:12;14.80;99.90
13742;DHT22;8461;52.356;10.704;2022-07-29T04:21:39;14.80;99.90
13742;DHT22;8461;52.356;10.704;2022-07-29T04:24:06;14.80;99.90
13742;DHT22;8461;52.356;10.704;2022-07-29T04:26:32;14.80;99.90
13742;DHT22;8461;52.356;10.704;2022-07-29T04:28:57;14.80;99.90
13742;DHT22;8461;52.356;10.704;2022-07-29T04:31:23;14.80;99.90
13742;DHT22;8461;52.356;10.704;2022-07-29T04:33:48;14.80;99.90
13742;DHT22;8461;52.356;10.704;2022-07-29T04:36:14;14.80;99.90
13742;DHT22;8461;52.356;10.704;2022-07-29T04:38:40;14.80;99.90
13742;DHT22;8461;52.356;10.704;2022-07-29T04:41:05;14.80;99.90
13742;DHT22;8461;52.356;10.704;2022-07-29T04:43:32;14.80;99.90
13742;DHT22;8461;52.356;10.704;2022-07-29T04:45:58;14.80;99.90
13742;DHT22;8461;52.356;10.704;2022-07-29T04:48:24;14.80;99.90
13742;DHT22;8461;52.356;10.704;2022-07-29T04:50:50;14.90;99.90
13742;DHT22;8461;52.356;10.704;2022-07-29T04:53:16;14.90;99.90
13742;DHT22;8461;52.356;10.704;2022-07-29T04:55:41;14.90;99.90
13742;DHT22;8461;52.356;10.704;2022-07-29T04:58:07;14.90;99.90
13742;DHT22;8461;52.356;10.704;2022-07-29T05:00:33;14.80;99.90
13742;DHT22;8461;52.356;10.704;2022-07-29T05:02:58;14.80;99.90
13742;DHT22;8461;52.356;10.704;2022-07-29T05:05:24;14.80;99.90
13742;DHT22;8461;52.356;10.704;2022-07-29T05:07:49;14.90;99.90
13742;DHT22;8461;52.356;10.704;2022-07-29T05:10:15;15.00;99.90
13742;DHT22;8461;52.356;10.704;2022-07-29T05:12:40;15.10;99.90
13742;DHT22;8461;52.356;10.704;2022-07-29T05:15:06;15.10;99.90
13742;DHT22;8461;52.356;10.704;2022-07-29T05:17:32;15.10;99.90
13742;DHT22;8461;52.356;10.704;2022-07-29T05:19:57;15.10;99.90
13742;DHT22;8461;52.356;10.704;2022-07-29T05:22:23;15.10;99.90
13742;DHT22;8461;52.356;10.704;2022-07-29T05:24:48;15.20;99.90
13742;DHT22;8461;52.356;10.704;2022-07-29T05:27:14;15.20;99.90
13742;DHT22;8461;52.356;10.704;2022-07-29T05:29:39;15.30;99.90
13742;DHT22;8461;52.356;10.704;2022-07-29T05:32:05;15.30;99.90
13742;DHT22;8461;52.356;10.704;2022-07-29T05:34:31;15.30;99.90
13742;DHT22;8461;52.356;10.704;2022-07-29T05:36:57;15.30;99.90
13742;DHT22;8461;52.356;10.704;2022-07-29T05:39:23;15.30;99.90
13742;DHT22;8461;52.356;10.704;2022-07-29T05:41:49;15.30;99.90
13742;DHT22;8461;52.356;10.704;2022-07-29T05:44:14;15.50;99.90
13742;DHT22;8461;52.356;10.704;2022-07-29T05:46:40;15.50;99.90
13742;DHT22;8461;52.356;10.704;2022-07-29T05:49:06;15.60;99.90
13742;DHT22;8461;52.356;10.704;2022-07-29T05:51:33;15.70;99.90
13742;DHT22;8461;52.356;10.704;2022-07-29T05:53:59;15.70;99.90
13742;DHT22;8461;52.356;10.704;2022-07-29T05:56:24;15.80;99.90
13742;DHT22;8461;52.356;10.704;2022-07-29T05:58:50;15.70;99.90
13742;DHT22;8461;52.356;10.704;2022-07-29T06:01:16;15.70;99.90
13742;DHT22;8461;52.356;10.704;2022-07-29T06:03:41;15.80;99.90
13742;DHT22;8461;52.356;10.704;2022-07-29T06:06:07;15.80;99.90
13742;DHT22;8461;52.356;10.704;2022-07-29T06:08:33;15.90;99.90
13742;DHT22;8461;52.356;10.704;2022-07-29T06:11:02;16.00;99.90
13742;DHT22;8461;52.356;10.704;2022-07-29T06:13:28;16.10;99.90
13742;DHT22;8461;52.356;10.704;2022-07-29T06:15:54;16.10;99.90
13742;DHT22;8461;52.356;10.704;2022-07-29T06:18:20;16.20;99.90
13742;DHT22;8461;52.356;10.704;2022-07-29T06:20:49;16.20;99.90
13742;DHT22;8461;52.356;10.704;2022-07-29T06:23:15;16.30;99.90
13742;DHT22;8461;52.356;10.704;2022-07-29T06:25:41;16.40;99.90
13742;DHT22;8461;52.356;10.704;2022-07-29T06:28:06;16.40;99.90
13742;DHT22;8461;52.356;10.704;2022-07-29T06:30:32;16.50;99.90
13742;DHT22;8461;52.356;10.704;2022-07-29T06:32:58;16.50;99.90
13742;DHT22;8461;52.356;10.704;2022-07-29T06:35:23;16.60;99.90
13742;DHT22;8461;52.356;10.704;2022-07-29T06:37:49;16.70;99.90
13742;DHT22;8461;52.356;10.704;2022-07-29T06:40:15;16.70;99.90
13742;DHT22;8461;52.356;10.704;2022-07-29T06:42:59;16.70;99.90
13742;DHT22;8461;52.356;10.704;2022-07-29T06:45:24;16.70;99.90
13742;DHT22;8461;52.356;10.704;2022-07-29T06:47:50;16.70;99.90
13742;DHT22;8461;52.356;10.704;2022-07-29T06:50:16;16.70;99.90
13742;DHT22;8461;52.356;10.704;2022-07-29T06:52:41;16.80;99.90
13742;DHT22;8461;52.356;10.704;2022-07-29T06:55:07;16.70;99.90
13742;DHT22;8461;52.356;10.704;2022-07-29T06:57:33;16.90;99.90
13742;DHT22;8461;52.356;10.704;2022-07-29T06:59:59;17.00;99.90
13742;DHT22;8461;52.356;10.704;2022-07-29T07:02:25;17.20;99.90
13742;DHT22;8461;52.356;10.704;2022-07-29T07:04:51;17.20;99.90
13742;DHT22;8461;52.356;10.704;2022-07-29T07:07:17;17.30;99.90
13742;DHT22;8461;52.356;10.704;2022-07-29T07:09:43;17.40;99.90
13742;DHT22;8461;52.356;10.704;2022-07-29T07:12:08;17.30;99.90
13742;DHT22;8461;52.356;10.704;2022-07-29T07:14:34;17.30;99.90
13742;DHT22;8461;52.356;10.704;2022-07-29T07:16:59;17.40;99.90
13742;DHT22;8461;52.356;10.704;2022-07-29T07:19:29;17.40;99.90
13742;DHT22;8461;52.356;10.704;2022-07-29T07:21:55;17.40;99.90
13742;DHT22;8461;52.356;10.704;2022-07-29T07:24:20;17.40;99.90
13742;DHT22;8461;52.356;10.704;2022-07-29T07:26:46;17.60;99.90
13742;DHT22;8461;52.356;10.704;2022-07-29T07:29:11;17.70;99.90
13742;DHT22;8461;52.356;10.704;2022-07-29T07:31:38;17.80;99.90
13742;DHT22;8461;52.356;10.704;2022-07-29T07:34:04;17.80;99.90
13742;DHT22;8461;52.356;10.704;2022-07-29T07:36:29;17.80;99.90
13742;DHT22;8461;52.356;10.704;2022-07-29T07:38:55;17.90;99.90
13742;DHT22;8461;52.356;10.704;2022-07-29T07:41:21;17.90;99.90
13742;DHT22;8461;52.356;10.704;2022-07-29T07:43:46;18.10;99.90
13742;DHT22;8461;52.356;10.704;2022-07-29T07:46:12;18.20;99.90
13742;DHT22;8461;52.356;10.704;2022-07-29T07:48:38;18.40;99.90
13742;DHT22;8461;52.356;10.704;2022-07-29T07:51:03;18.60;99.90
13742;DHT22;8461;52.356;10.704;2022-07-29T07:53:29;18.60;99.90
13742;DHT22;8461;52.356;10.704;2022-07-29T07:55:55;18.70;99.90
13742;DHT22;8461;52.356;10.704;2022-07-29T07:58:21;18.80;99.90
13742;DHT22;8461;52.356;10.704;2022-07-29T08:00:46;19.00;99.90
13742;DHT22;8461;52.356;10.704;2022-07-29T08:03:12;19.10;99.90
13742;DHT22;8461;52.356;10.704;2022-07-29T08:05:39;19.20;99.90
13742;DHT22;8461;52.356;10.704;2022-07-29T08:08:05;19.40;99.90
13742;DHT22;8461;52.356;10.704;2022-07-29T08:10:30;19.70;99.90
13742;DHT22;8461;52.356;10.704;2022-07-29T08:13:14;19.80;99.90
13742;DHT22;8461;52.356;10.704;2022-07-29T08:15:40;19.90;99.90
13742;DHT22;8461;52.356;10.704;2022-07-29T08:18:10;20.00;99.90
13742;DHT22;8461;52.356;10.704;2022-07-29T08:20:36;20.20;99.90
13742;DHT22;8461;52.356;10.704;2022-07-29T08:23:04;20.30;99.90
13742;DHT22;8461;52.356;10.704;2022-07-29T08:25:32;20.30;99.90
13742;DHT22;8461;52.356;10.704;2022-07-29T08:27:58;20.40;99.90
13742;DHT22;8461;52.356;10.704;2022-07-29T08:30:24;20.60;99.90
13742;DHT22;8461;52.356;10.704;2022-07-29T08:32:50;20.70;99.90
13742;DHT22;8461;52.356;10.704;2022-07-29T08:35:18;20.80;99.90
13742;DHT22;8461;52.356;10.704;2022-07-29T08:37:44;20.90;99.90
13742;DHT22;8461;52.356;10.704;2022-07-29T08:40:10;20.90;99.90
13742;DHT22;8461;52.356;10.704;2022-07-29T08:42:36;21.00;99.90
13742;DHT22;8461;52.356;10.704;2022-07-29T08:45:03;21.00;99.90
13742;DHT22;8461;52.356;10.704;2022-07-29T08:47:29;21.10;99.90
13742;DHT22;8461;52.356;10.704;2022-07-29T08:49:55;21.20;99.90
13742;DHT22;8461;52.356;10.704;2022-07-29T08:52:21;21.30;99.90
13742;DHT22;8461;52.356;10.704;2022-07-29T08:54:47;21.40;99.90
13742;DHT22;8461;52.356;10.704;2022-07-29T08:57:14;21.50;99.90
13742;DHT22;8461;52.356;10.704;2022-07-29T08:59:42;21.60;99.90
13742;DHT22;8461;52.356;10.704;2022-07-29T09:02:18;21.50;99.90
13742;DHT22;8461;52.356;10.704;2022-07-29T09:04:44;21.60;99.90
13742;DHT22;8461;52.356;10.704;2022-07-29T09:07:14;21.70;99.90
13742;DHT22;8461;52.356;10.704;2022-07-29T09:09:41;21.80;99.90
13742;DHT22;8461;52.356;10.704;2022-07-29T09:12:06;22.00;99.80
13742;DHT22;8461;52.356;10.704;2022-07-29T09:14:33;22.00;99.90
13742;DHT22;8461;52.356;10.704;2022-07-29T09:16:59;22.10;99.90
13742;DHT22;8461;52.356;10.704;2022-07-29T09:19:27;22.20;99.60
13742;DHT22;8461;52.356;10.704;2022-07-29T09:21:53;22.20;99.90
13742;DHT22;8461;52.356;10.704;2022-07-29T09:24:48;22.30;99.60
13742;DHT22;8461;52.356;10.704;2022-07-29T09:27:21;22.20;99.60
13742;DHT22;8461;52.356;10.704;2022-07-29T09:30:08;22.30;99.20
13742;DHT22;8461;52.356;10.704;2022-07-29T09:32:57;22.30;99.10
13742;DHT22;8461;52.356;10.704;2022-07-29T09:35:26;22.50;99.30
13742;DHT22;8461;52.356;10.704;2022-07-29T09:37:51;22.50;99.10
13742;DHT22;8461;52.356;10.704;2022-07-29T09:40:25;22.60;98.90
13742;DHT22;8461;52.356;10.704;2022-07-29T09:42:53;22.70;99.20
13742;DHT22;8461;52.356;10.704;2022-07-29T09:45:33;22.80;98.50
13742;DHT22;8461;52.356;10.704;2022-07-29T09:48:00;22.90;98.30
13742;DHT22;8461;52.356;10.704;2022-07-29T09:50:42;23.10;98.30
13742;DHT22;8461;52.356;10.704;2022-07-29T09:53:08;23.10;98.20
13742;DHT22;8461;52.356;10.704;2022-07-29T09:55:49;23.10;98.00
13742;DHT22;8461;52.356;10.704;2022-07-29T09:58:19;23.20;97.70
13742;DHT22;8461;52.356;10.704;2022-07-29T10:00:46;23.20;98.00
13742;DHT22;8461;52.356;10.704;2022-07-29T10:03:13;23.40;97.20
13742;DHT22;8461;52.356;10.704;2022-07-29T10:05:39;23.30;97.00
13742;DHT22;8461;52.356;10.704;2022-07-29T10:08:06;23.40;97.50
13742;DHT22;8461;52.356;10.704;2022-07-29T10:10:35;23.40;97.60
13742;DHT22;8461;52.356;10.704;2022-07-29T10:13:12;23.60;97.20
13742;DHT22;8461;52.356;10.704;2022-07-29T10:15:43;23.50;97.30
13742;DHT22;8461;52.356;10.704;2022-07-29T10:18:12;23.40;97.30
13742;DHT22;8461;52.356;10.704;2022-07-29T10:20:38;23.50;97.40
13742;DHT22;8461;52.356;10.704;2022-07-29T10:23:04;23.50;97.20
13742;DHT22;8461;52.356;10.704;2022-07-29T10:25:30;23.40;97.90
13742;DHT22;8461;52.356;10.704;2022-07-29T10:27:56;23.30;97.60
13742;DHT22;8461;52.356;10.704;2022-07-29T10:30:23;23.40;97.90
13742;DHT22;8461;52.356;10.704;2022-07-29T10:44:12;24.00;97.70
13742;DHT22;8461;52.356;10.704;2022-07-29T10:46:39;24.10;96.80
13742;DHT22;8461;52.356;10.704;2022-07-29T10:57:30;24.20;94.90
13742;DHT22;8461;52.356;10.704;2022-07-29T11:05:18;24.50;93.60
13742;DHT22;8461;52.356;10.704;2022-07-29T11:10:38;24.60;93.50
13742;DHT22;8461;52.356;10.704;2022-07-29T11:13:04;24.80;93.10
13742;DHT22;8461;52.356;10.704;2022-07-29T11:15:56;24.90;93.20
13742;DHT22;8461;52.356;10.704;2022-07-29T11:18:22;25.10;92.50
13742;DHT22;8461;52.356;10.704;2022-07-29T11:20:49;25.30;92.20
13742;DHT22;8461;52.356;10.704;2022-07-29T11:26:14;25.40;91.10
13742;DHT22;8461;52.356;10.704;2022-07-29T11:29:12;25.30;91.10
13742;DHT22;8461;52.356;10.704;2022-07-29T11:31:42;25.20;90.70
13742;DHT22;8461;52.356;10.704;2022-07-29T11:34:29;25.10;90.90
13742;DHT22;8461;52.356;10.704;2022-07-29T11:47:39;25.30;90.50
13742;DHT22;8461;52.356;10.704;2022-07-29T11:50:14;25.40;89.60
13742;DHT22;8461;52.356;10.704;2022-07-29T11:52:45;25.40;89.60
13742;DHT22;8461;52.356;10.704;2022-07-29T11:55:21;25.40;88.70
13742;DHT22;8461;52.356;10.704;2022-07-29T11:57:48;25.40;89.00
13742;DHT22;8461;52.356;10.704;2022-07-29T12:00:23;25.40;88.90
13742;DHT22;8461;52.356;10.704;2022-07-29T12:02:49;25.40;89.40
13742;DHT22;8461;52.356;10.704;2022-07-29T12:05:15;25.40;89.00
13742;DHT22;8461;52.356;10.704;2022-07-29T12:07:41;25.50;89.30
13742;DHT22;8461;52.356;10.704;2022-07-29T12:10:07;25.50;89.30
13742;DHT22;8461;52.356;10.704;2022-07-29T12:12:34;25.60;89.40
13742;DHT22;8461;52.356;10.704;2022-07-29T12:15:17;25.60;89.90
13742;DHT22;8461;52.356;10.704;2022-07-29T12:17:44;25.60;89.50
13742;DHT22;8461;52.356;10.704;2022-07-29T12:20:09;25.70;90.10
13742;DHT22;8461;52.356;10.704;2022-07-29T12:22:39;25.70;89.60
13742;DHT22;8461;52.356;10.704;2022-07-29T12:25:11;25.80;89.70
13742;DHT22;8461;52.356;10.704;2022-07-29T12:27:39;25.90;89.90
13742;DHT22;8461;52.356;10.704;2022-07-29T12:30:11;25.90;87.60
13742;DHT22;8461;52.356;10.704;2022-07-29T12:32:43;25.90;88.70
13742;DHT22;8461;52.356;10.704;2022-07-29T12:35:16;26.00;87.60
13742;DHT22;8461;52.356;10.704;2022-07-29T12:37:43;26.00;87.90
13742;DHT22;8461;52.356;10.704;2022-07-29T12:40:12;26.20;87.40
13742;DHT22;8461;52.356;10.704;2022-07-29T12:42:38;26.10;86.70
13742;DHT22;8461;52.356;10.704;2022-07-29T12:45:05;26.10;85.80
13742;DHT22;8461;52.356;10.704;2022-07-29T12:47:31;26.00;86.20
13742;DHT22;8461;52.356;10.704;2022-07-29T12:50:13;26.00;85.70
13742;DHT22;8461;52.356;10.704;2022-07-29T12:52:44;26.10;84.50
13742;DHT22;8461;52.356;10.704;2022-07-29T12:55:10;26.10;84.30
13742;DHT22;8461;52.356;10.704;2022-07-29T12:57:49;26.10;84.70
13742;DHT22;8461;52.356;10.704;2022-07-29T13:00:23;26.10;85.10
13742;DHT22;8461;52.356;10.704;2022-07-29T13:02:59;26.30;85.60
13742;DHT22;8461;52.356;10.704;2022-07-29T13:05:43;26.30;84.00
13742;DHT22;8461;52.356;10.704;2022-07-29T13:08:14;26.30;83.20
13742;DHT22;8461;52.356;10.704;2022-07-29T13:10:40;26.40;84.20
13742;DHT22;8461;52.356;10.704;2022-07-29T13:13:11;26.50;83.20
13742;DHT22;8461;52.356;10.704;2022-07-29T13:15:39;26.50;83.60
13742;DHT22;8461;52.356;10.704;2022-07-29T13:18:25;26.50;79.70
13742;DHT22;8461;52.356;10.704;2022-07-29T13:20:51;26.50;81.60
13742;DHT22;8461;52.356;10.704;2022-07-29T13:23:16;26.40;80.70
13742;DHT22;8461;52.356;10.704;2022-07-29T13:25:43;26.50;81.40
13742;DHT22;8461;52.356;10.704;2022-07-29T13:28:08;26.40;81.80
13742;DHT22;8461;52.356;10.704;2022-07-29T13:30:34;26.30;81.00
13742;DHT22;8461;52.356;10.704;2022-07-29T13:32:59;26.30;80.80
13742;DHT22;8461;52.356;10.704;2022-07-29T13:35:25;26.30;82.80
13742;DHT22;8461;52.356;10.704;2022-07-29T13:37:50;26.30;80.70
13742;DHT22;8461;52.356;10.704;2022-07-29T13:40:16;26.40;81.70
13742;DHT22;8461;52.356;10.704;2022-07-29T13:42:42;26.50;81.00
13742;DHT22;8461;52.356;10.704;2022-07-29T13:45:09;26.50;80.80
13742;DHT22;8461;52.356;10.704;2022-07-29T13:47:36;26.40;80.40
13742;DHT22;8461;52.356;10.704;2022-07-29T13:50:02;26.30;80.50
13742;DHT22;8461;52.356;10.704;2022-07-29T13:52:28;26.30;80.50
13742;DHT22;8461;52.356;10.704;2022-07-29T13:54:54;26.20;80.10
13742;DHT22;8461;52.356;10.704;2022-07-29T13:57:20;26.30;81.70
13742;DHT22;8461;52.356;10.704;2022-07-29T13:59:45;26.30;81.30
13742;DHT22;8461;52.356;10.704;2022-07-29T14:02:11;26.30;81.70
13742;DHT22;8461;52.356;10.704;2022-07-29T14:04:37;26.40;82.10
13742;DHT22;8461;52.356;10.704;2022-07-29T14:07:03;26.50;80.50
13742;DHT22;8461;52.356;10.704;2022-07-29T14:09:29;26.40;79.30
13742;DHT22;8461;52.356;10.704;2022-07-29T14:11:54;26.40;79.30
13742;DHT22;8461;52.356;10.704;2022-07-29T14:14:20;26.30;80.10
13742;DHT22;8461;52.356;10.704;2022-07-29T14:16:46;26.40;81.30
13742;DHT22;8461;52.356;10.704;2022-07-29T14:19:11;26.30;81.60
13742;DHT22;8461;52.356;10.704;2022-07-29T14:21:38;26.30;84.00
13742;DHT22;8461;52.356;10.704;2022-07-29T14:24:04;26.40;82.10
13742;DHT22;8461;52.356;10.704;2022-07-29T14:26:31;26.50;80.90
13742;DHT22;8461;52.356;10.704;2022-07-29T14:28:56;26.40;81.80
13742;DHT22;8461;52.356;10.704;2022-07-29T14:31:22;26.30;80.80
13742;DHT22;8461;52.356;10.704;2022-07-29T14:33:48;26.30;81.30
13742;DHT22;8461;52.356;10.704;2022-07-29T14:36:13;26.30;81.70
13742;DHT22;8461;52.356;10.704;2022-07-29T14:38:39;26.30;80.70
13742;DHT22;8461;52.356;10.704;2022-07-29T14:41:06;26.30;81.20
13742;DHT22;8461;52.356;10.704;2022-07-29T14:43:32;26.30;81.70
13742;DHT22;8461;52.356;10.704;2022-07-29T14:45:57;26.20;81.40
13742;DHT22;8461;52.356;10.704;2022-07-29T14:48:23;26.10;81.70
13742;DHT22;8461;52.356;10.704;2022-07-29T14:50:48;26.10;82.20
13742;DHT22;8461;52.356;10.704;2022-07-29T14:53:14;26.10;82.00
13742;DHT22;8461;52.356;10.704;2022-07-29T14:55:40;26.00;82.80
13742;DHT22;8461;52.356;10.704;2022-07-29T14:58:06;26.10;85.10
13742;DHT22;8461;52.356;10.704;2022-07-29T15:00:31;26.00;84.10
13742;DHT22;8461;52.356;10.704;2022-07-29T15:02:59;26.00;84.30
13742;DHT22;8461;52.356;10.704;2022-07-29T15:05:25;25.90;82.70
13742;DHT22;8461;52.356;10.704;2022-07-29T15:07:51;25.90;82.30
13742;DHT22;8461;52.356;10.704;2022-07-29T15:10:17;25.80;83.40
13742;DHT22;8461;52.356;10.704;2022-07-29T15:12:42;25.80;82.30
13742;DHT22;8461;52.356;10.704;2022-07-29T15:15:08;25.80;82.80
13742;DHT22;8461;52.356;10.704;2022-07-29T15:17:34;25.90;82.60
13742;DHT22;8461;52.356;10.704;2022-07-29T15:19:59;25.90;82.30
13742;DHT22;8461;52.356;10.704;2022-07-29T15:22:25;25.90;83.20
13742;DHT22;8461;52.356;10.704;2022-07-29T15:24:51;25.90;83.00
13742;DHT22;8461;52.356;10.704;2022-07-29T15:27:16;25.80;84.00
13742;DHT22;8461;52.356;10.704;2022-07-29T15:29:42;25.80;83.90
13742;DHT22;8461;52.356;10.704;2022-07-29T15:32:08;25.80;82.90
13742;DHT22;8461;52.356;10.704;2022-07-29T15:34:36;25.80;83.00
13742;DHT22;8461;52.356;10.704;2022-07-29T15:37:01;25.80;81.90
13742;DHT22;8461;52.356;10.704;2022-07-29T15:39:27;25.90;82.30
13742;DHT22;8461;52.356;10.704;2022-07-29T15:41:53;25.70;83.00
13742;DHT22;8461;52.356;10.704;2022-07-29T15:44:19;25.60;83.70
13742;DHT22;8461;52.356;10.704;2022-07-29T15:46:45;25.60;82.60
13742;DHT22;8461;52.356;10.704;2022-07-29T15:49:33;25.60;83.40
13742;DHT22;8461;52.356;10.704;2022-07-29T15:52:01;25.50;82.90
13742;DHT22;8461;52.356;10.704;2022-07-29T15:54:28;25.50;83.40
13742;DHT22;8461;52.356;10.704;2022-07-29T15:56:54;25.40;84.00
13742;DHT22;8461;52.356;10.704;2022-07-29T15:59:21;25.30;84.50
13742;DHT22;8461;52.356;10.704;2022-07-29T16:01:47;25.30;84.90
13742;DHT22;8461;52.356;10.704;2022-07-29T16:04:12;25.30;84.20
13742;DHT22;8461;52.356;10.704;2022-07-29T16:06:38;25.30;84.50
13742;DHT22;8461;52.356;10.704;2022-07-29T16:09:03;25.20;84.70
13742;DHT22;8461;52.356;10.704;2022-07-29T16:11:29;25.30;84.40
13742;DHT22;8461;52.356;10.704;2022-07-29T16:13:55;25.30;84.70
13742;DHT22;8461;52.356;10.704;2022-07-29T16:16:20;25.30;85.20
13742;DHT22;8461;52.356;10.704;2022-07-29T16:18:46;25.30;86.30
13742;DHT22;8461;52.356;10.704;2022-07-29T16:21:12;25.10;86.10
13742;DHT22;8461;52.356;10.704;2022-07-29T16:23:38;25.10;85.90
13742;DHT22;8461;52.356;10.704;2022-07-29T16:26:04;25.10;86.40